Time;durP1;ratioP1;P1;durP2;ratioP2;P2;SDS_P1;SDS_P2;PMS_P1;PMS_P2;Temp;Humidity;BMP_temperature;BMP_pressure;BME280_temperature;BME280_humidity;BME280_pressure;Samples;Min_cycle;Max_cycle;Signal;HPM_P1;HPM_P2
2023/02/18 00:00:52;;;;;;;;;;;;;;;8.56;68.87;101057.41;4178430;28;20367;-65
2023/02/18 00:02:55;;;;;;;;;;;;;;;8.56;69.22;101060.09;4177204;28;20027;-65
2023/02/18 00:04:57;;;;;;;;;;;;;;;8.54;68.63;101053.16;4176815;28;20004;-65
2023/02/18 00:06:59;;;;;;;;;;;;;;;8.53;68.76;101065.78;4177357;28;20011;-65
2023/02/18 00:09:01;;;;;;;;;;;;;;;8.51;68.12;101069.63;4179658;28;20028;-65
2023/02/18 00:11:06;;;;;;;;;;;;;;;8.50;68.36;101065.25;4179195;28;20004;-65
2023/02/18 00:13:08;;;;;;;;;;;;;;;8.48;68.53;101065.41;4179482;28;20019;-65
2023/02/18 00:15:10;;;;;;;;;;;;;;;8.42;66.75;101063.31;4179216;28;20007;-65
2023/02/18 00:17:12;;;;;;;;;;;;;;;8.43;67.25;101064.97;4179481;28;20019;-64
2023/02/18 00:19:15;;;;;;;;;;;;;;;8.44;68.39;101062.16;4178812;28;20028;-65
2023/02/18 00:21:16;;;;;;;;;;;;;;;8.46;69.20;101062.00;4178411;28;20477;-64
2023/02/18 00:23:18;;;;;;;;;;;;;;;8.46;69.03;101068.25;4178447;28;20095;-64
2023/02/18 00:25:20;;;;;;;;;;;;;;;8.48;70.31;101062.72;4178174;28;20012;-65
2023/02/18 00:27:24;;;;;;;;;;;;;;;8.50;70.12;101079.56;4179297;28;20020;-65
2023/02/18 00:29:26;;;;;;;;;;;;;;;8.46;68.61;101068.25;4176494;28;20024;-65
2023/02/18 00:31:28;;;;;;;;;;;;;;;8.45;69.22;101076.50;4185662;28;20055;-64
2023/02/18 00:33:30;;;;;;;;;;;;;;;8.46;69.34;101075.47;4178629;28;20028;-65
2023/02/18 00:35:34;;;;;;;;;;;;;;;8.46;68.83;101079.03;4169101;28;20032;-65
2023/02/18 00:37:36;;;;;;;;;;;;;;;8.44;68.99;101067.53;4179506;28;20377;-64
2023/02/18 00:39:38;;;;;;;;;;;;;;;8.44;69.05;101070.25;4177710;28;20015;-64
2023/02/18 00:41:40;;;;;;;;;;;;;;;8.47;69.63;101079.88;4179337;28;20446;-64
2023/02/18 00:43:44;;;;;;;;;;;;;;;8.48;70.17;101092.34;4169607;28;20023;-65
2023/02/18 00:45:46;;;;;;;;;;;;;;;8.47;70.27;101063.72;4184981;28;20047;-65
2023/02/18 00:47:48;;;;;;;;;;;;;;;8.48;70.20;101086.94;4170502;28;20090;-65
2023/02/18 00:49:50;;;;;;;;;;;;;;;8.45;69.32;101093.47;4177533;28;20374;-65
2023/02/18 00:51:52;;;;;;;;;;;;;;;8.39;68.33;101072.53;4177406;28;20035;-64
2023/02/18 00:53:54;;;;;;;;;;;;;;;8.41;69.75;101092.06;4176980;28;20355;-65
2023/02/18 00:55:58;;;;;;;;;;;;;;;8.37;69.52;101085.31;4177875;28;20435;-65
2023/02/18 00:58:00;;;;;;;;;;;;;;;8.39;68.89;101090.53;4178622;28;20015;-65
2023/02/18 01:00:03;;;;;;;;;;;;;;;8.37;68.86;101093.38;4169257;28;20032;-65
2023/02/18 01:02:06;;;;;;;;;;;;;;;8.36;68.64;101101.59;4192257;28;20037;-65
2023/02/18 01:04:08;;;;;;;;;;;;;;;8.17;68.14;101070.31;4178897;28;20016;-65
2023/02/18 01:06:10;;;;;;;;;;;;;;;8.29;68.19;101090.59;4178245;28;20434;-65
2023/02/18 01:08:12;;;;;;;;;;;;;;;8.29;68.41;101082.50;4176188;28;20020;-65
2023/02/18 01:10:14;;;;;;;;;;;;;;;8.28;68.66;101075.47;4169058;28;20027;-64
2023/02/18 01:12:16;;;;;;;;;;;;;;;8.27;68.76;101085.34;4177060;28;20036;-65
2023/02/18 01:14:18;;;;;;;;;;;;;;;8.27;69.02;101082.66;4168902;28;20023;-65
2023/02/18 01:16:22;;;;;;;;;;;;;;;8.28;68.89;101092.44;4169651;28;20028;-64
2023/02/18 01:18:24;;;;;;;;;;;;;;;8.28;69.30;101092.44;4175162;28;20012;-64
2023/02/18 01:20:26;;;;;;;;;;;;;;;8.29;69.69;101074.44;4168450;28;20008;-64
2023/02/18 01:22:28;;;;;;;;;;;;;;;8.24;68.82;101082.97;4178939;28;20058;-64
2023/02/18 01:24:30;;;;;;;;;;;;;;;8.22;68.74;101086.84;4178307;28;20019;-64
2023/02/18 01:26:34;;;;;;;;;;;;;;;8.18;67.92;101086.31;4185026;28;20103;-64
2023/02/18 01:28:36;;;;;;;;;;;;;;;8.24;69.48;101092.91;4178365;28;20011;-64
2023/02/18 01:30:41;;;;;;;;;;;;;;;8.25;69.72;101083.84;4168568;28;20426;-64
2023/02/18 01:32:45;;;;;;;;;;;;;;;8.23;68.74;101089.38;4178443;28;20020;-65
2023/02/18 01:34:47;;;;;;;;;;;;;;;8.24;68.66;101084.81;4177873;28;20023;-64
2023/02/18 01:36:48;;;;;;;;;;;;;;;8.24;69.03;101084.81;4174404;28;20011;-65
2023/02/18 01:38:52;;;;;;;;;;;;;;;8.22;68.66;101084.97;4168630;28;20458;-64
2023/02/18 01:40:54;;;;;;;;;;;;;;;8.19;68.44;101087.13;4167345;28;20016;-64
2023/02/18 01:42:56;;;;;;;;;;;;;;;8.13;67.34;101080.50;4178911;28;20029;-64
2023/02/18 01:45:16;;;;;;;;;;;;;;;8.13;68.54;101088.59;4185083;28;20023;-64
2023/02/18 01:47:18;;;;;;;;;;;;;;;8.10;68.35;101075.44;4184713;28;20007;-64
2023/02/18 01:49:22;;;;;;;;;;;;;;;8.08;68.20;101088.19;4192912;28;20019;-65
2023/02/18 01:51:25;;;;;;;;;;;;;;;8.10;69.05;101073.59;4168163;28;20015;-64
2023/02/18 01:53:28;;;;;;;;;;;;;;;8.10;68.47;101086.19;4168276;28;20023;-64
2023/02/18 01:55:30;;;;;;;;;;;;;;;8.07;68.51;101082.00;4177264;28;20028;-64
2023/02/18 01:57:33;;;;;;;;;;;;;;;8.06;68.91;101090.22;4169303;28;20032;-64
2023/02/18 01:59:37;;;;;;;;;;;;;;;8.00;68.49;101086.28;4168213;28;20027;-64
2023/02/18 02:01:39;;;;;;;;;;;;;;;7.95;68.19;101096.66;4175881;28;20019;-64
2023/02/18 02:03:43;;;;;;;;;;;;;;;7.92;68.64;101103.16;4176159;28;20612;-64
2023/02/18 02:05:46;;;;;;;;;;;;;;;7.90;68.60;101078.28;4172542;28;20029;-64
2023/02/18 02:07:51;;;;;;;;;;;;;;;7.86;68.39;101081.41;4169304;28;20408;-64
2023/02/18 02:09:53;;;;;;;;;;;;;;;7.81;68.07;101081.88;4176185;28;20044;-64
2023/02/18 02:11:59;;;;;;;;;;;;;;;7.74;67.74;101105.81;4175641;28;20434;-63
2023/02/18 02:14:10;;;;;;;;;;;;;;;7.74;67.46;101078.06;4185293;28;20727;-64
2023/02/18 02:16:13;;;;;;;;;;;;;;;7.68;67.20;101090.28;4183928;28;20367;-64
2023/02/18 02:18:17;;;;;;;;;;;;;;;7.61;66.61;101085.66;4176152;28;20035;-64
2023/02/18 02:20:26;;;;;;;;;;;;;;;7.53;66.35;101075.66;4177309;28;20011;-64
2023/02/18 02:22:49;;;;;;;;;;;;;;;7.47;66.38;101082.44;4177973;28;20339;-64
2023/02/18 02:25:00;;;;;;;;;;;;;;;7.44;66.40;101081.91;4174406;28;20008;-64
2023/02/18 02:27:19;;;;;;;;;;;;;;;7.42;66.16;101087.44;4171468;28;20011;-64
2023/02/18 02:29:42;;;;;;;;;;;;;;;7.38;65.79;101088.72;4170883;28;20068;-64
2023/02/18 02:31:51;;;;;;;;;;;;;;;7.36;66.26;101093.41;4180811;28;20028;-64
2023/02/18 02:33:59;;;;;;;;;;;;;;;7.35;66.42;101091.69;4179113;28;20024;-64
2023/02/18 02:36:04;;;;;;;;;;;;;;;7.32;66.43;101089.28;4171492;28;20086;-63
2023/02/18 02:38:06;;;;;;;;;;;;;;;7.32;66.34;101090.16;4181726;28;20031;-64
2023/02/18 02:40:12;;;;;;;;;;;;;;;7.33;66.12;101077.56;4171947;28;20023;-64
2023/02/18 02:42:16;;;;;;;;;;;;;;;7.27;65.87;101084.38;4188380;28;20475;-64
2023/02/18 02:44:19;;;;;;;;;;;;;;;7.21;66.16;101080.44;4195705;28;20023;-65
2023/02/18 02:46:23;;;;;;;;;;;;;;;7.19;66.13;101093.19;4178510;28;20020;-63
2023/02/18 02:48:30;;;;;;;;;;;;;;;7.17;66.03;101089.78;4178073;28;20019;-64
2023/02/18 02:50:34;;;;;;;;;;;;;;;7.16;66.33;101084.56;4179686;28;20020;-64
2023/02/18 02:52:38;;;;;;;;;;;;;;;7.08;65.97;101087.13;4181102;28;20035;-64
2023/02/18 02:54:40;;;;;;;;;;;;;;;7.11;66.06;101092.22;4187781;28;20502;-64
2023/02/18 02:56:42;;;;;;;;;;;;;;;7.15;65.65;101099.00;4172310;28;20024;-64
2023/02/18 02:58:45;;;;;;;;;;;;;;;7.18;65.70;101107.59;4181590;28;19951;-64
2023/02/18 03:00:52;;;;;;;;;;;;;;;7.18;65.42;101107.59;4187027;28;20064;-64
2023/02/18 03:02:58;;;;;;;;;;;;;;;7.12;65.52;101110.03;4179049;28;20019;-64
2023/02/18 03:05:04;;;;;;;;;;;;;;;7.07;65.50;101113.16;4195568;28;20019;-64
2023/02/18 03:07:10;;;;;;;;;;;;;;;7.08;65.89;101105.94;4179094;28;20047;-64
2023/02/18 03:09:16;;;;;;;;;;;;;;;7.07;65.50;101102.41;4180124;28;20035;-64
2023/02/18 03:11:19;;;;;;;;;;;;;;;7.03;65.64;101107.19;4185794;28;20543;-64
2023/02/18 03:13:26;;;;;;;;;;;;;;;7.01;65.37;101100.28;4182674;28;20419;-65
2023/02/18 03:15:30;;;;;;;;;;;;;;;6.94;65.62;101094.63;4187777;28;20402;-64
2023/02/18 03:17:33;;;;;;;;;;;;;;;6.94;65.64;101085.75;4187472;28;20011;-64
2023/02/18 03:19:37;;;;;;;;;;;;;;;6.90;65.37;101093.25;4187373;28;20342;-64
2023/02/18 03:21:40;;;;;;;;;;;;;;;6.88;65.49;101097.94;4187217;28;20478;-64
2023/02/18 03:23:42;;;;;;;;;;;;;;;6.87;65.72;101095.38;4187170;28;20024;-64
2023/02/18 03:25:46;;;;;;;;;;;;;;;6.86;65.45;101099.88;4179943;28;20545;-64
2023/02/18 03:27:49;;;;;;;;;;;;;;;6.87;65.60;101095.38;4187234;28;20888;-64
2023/02/18 03:29:52;;;;;;;;;;;;;;;6.88;65.38;101097.06;4194491;28;20445;-64
2023/02/18 03:31:55;;;;;;;;;;;;;;;6.81;65.42;101092.25;4186073;28;20325;-64
2023/02/18 03:34:02;;;;;;;;;;;;;;;6.83;65.21;101100.19;4186980;28;20494;-64
2023/02/18 03:36:04;;;;;;;;;;;;;;;6.83;65.33;101094.81;4193940;28;20067;-64
2023/02/18 03:38:09;;;;;;;;;;;;;;;6.83;65.26;101084.94;4180797;28;20458;-64
2023/02/18 03:40:11;;;;;;;;;;;;;;;6.84;65.09;101088.47;4178492;28;20036;-64
2023/02/18 03:42:14;;;;;;;;;;;;;;;6.79;64.98;101094.25;4180396;28;20015;-64
2023/02/18 03:44:16;;;;;;;;;;;;;;;6.75;65.02;101090.16;4169709;28;20528;-64
2023/02/18 03:46:18;;;;;;;;;;;;;;;6.73;64.97;101097.50;4178584;28;20023;-63
2023/02/18 03:48:20;;;;;;;;;;;;;;;6.72;65.16;101090.44;4178113;28;20012;-64
2023/02/18 03:50:22;;;;;;;;;;;;;;;6.69;65.23;101088.03;4178393;28;20035;-64
2023/02/18 03:52:24;;;;;;;;;;;;;;;6.71;65.44;101093.25;4179924;28;20015;-64
2023/02/18 03:54:26;;;;;;;;;;;;;;;6.71;64.99;101095.94;4169817;28;20024;-64
2023/02/18 03:56:29;;;;;;;;;;;;;;;6.70;64.85;101094.28;4186988;28;20020;-64
2023/02/18 03:58:33;;;;;;;;;;;;;;;6.69;65.02;101088.03;4179311;28;20314;-65
2023/02/18 04:00:35;;;;;;;;;;;;;;;6.68;64.74;101087.19;4170166;28;20019;-64
2023/02/18 04:02:38;;;;;;;;;;;;;;;6.67;64.91;101092.72;4179923;28;20020;-65
2023/02/18 04:04:40;;;;;;;;;;;;;;;6.64;64.65;101095.69;4178764;28;20427;-65
2023/02/18 04:06:42;;;;;;;;;;;;;;;6.59;64.80;101092.59;4179995;28;20094;-64
2023/02/18 04:08:44;;;;;;;;;;;;;;;6.58;64.83;101091.75;4179236;28;20008;-65
2023/02/18 04:10:46;;;;;;;;;;;;;;;6.58;65.13;101102.47;4179250;28;20011;-64
2023/02/18 04:12:48;;;;;;;;;;;;;;;6.54;65.20;101100.22;4178773;28;20048;-64
2023/02/18 04:14:51;;;;;;;;;;;;;;;6.52;64.91;101100.38;4178712;28;20019;-65
2023/02/18 04:16:55;;;;;;;;;;;;;;;6.51;65.22;101112.06;4178272;28;20023;-65
2023/02/18 04:18:57;;;;;;;;;;;;;;;6.49;65.09;101109.53;4179505;28;20023;-65
2023/02/18 04:20:59;;;;;;;;;;;;;;;6.46;65.20;101107.13;4178687;28;20031;-65
2023/02/18 04:23:01;;;;;;;;;;;;;;;6.45;65.29;101116.16;4179330;28;20031;-64
2023/02/18 04:25:04;;;;;;;;;;;;;;;6.46;65.17;101117.03;4185200;28;20355;-64
2023/02/18 04:27:06;;;;;;;;;;;;;;;6.46;64.98;101111.66;4178684;28;20355;-65
2023/02/18 04:29:08;;;;;;;;;;;;;;;6.40;64.96;101118.44;4177935;28;20015;-65
2023/02/18 04:31:12;;;;;;;;;;;;;;;6.39;65.37;101106.00;4177628;28;20024;-65
2023/02/18 04:33:14;;;;;;;;;;;;;;;6.36;65.66;101119.69;4178528;28;20012;-65
2023/02/18 04:35:16;;;;;;;;;;;;;;;6.34;65.63;101118.16;4176457;28;20055;-65
2023/02/18 04:37:18;;;;;;;;;;;;;;;6.32;65.73;101119.13;4178181;28;20032;-65
2023/02/18 04:39:19;;;;;;;;;;;;;;;6.30;65.84;101121.13;4178104;28;20015;-65
2023/02/18 04:41:21;;;;;;;;;;;;;;;6.32;65.84;101123.66;4178700;28;20079;-64
2023/02/18 04:43:23;;;;;;;;;;;;;;;6.31;66.02;101127.31;4178181;28;20443;-66
2023/02/18 04:45:27;;;;;;;;;;;;;;;6.31;65.58;101124.63;4169256;28;20000;-65
2023/02/18 04:47:30;;;;;;;;;;;;;;;6.30;65.61;101128.28;4177247;28;20032;-65
2023/02/18 04:49:32;;;;;;;;;;;;;;;6.30;65.75;101125.59;4176893;28;20040;-65
2023/02/18 04:51:34;;;;;;;;;;;;;;;6.29;65.75;101129.31;4178251;28;20054;-65
2023/02/18 04:53:36;;;;;;;;;;;;;;;6.27;65.71;101125.88;4179423;28;20391;-65
2023/02/18 04:55:38;;;;;;;;;;;;;;;6.26;65.67;101134.94;4178124;28;20027;-65
2023/02/18 04:57:40;;;;;;;;;;;;;;;6.21;65.92;101116.59;4177397;28;20479;-66
2023/02/18 04:59:42;;;;;;;;;;;;;;;6.22;66.18;101126.34;4177032;28;20011;-65
2023/02/18 05:01:44;;;;;;;;;;;;;;;6.21;66.08;101127.31;4178767;28;19959;-65
2023/02/18 05:03:47;;;;;;;;;;;;;;;6.22;65.80;101125.47;4179190;28;20020;-65
2023/02/18 05:05:49;;;;;;;;;;;;;;;6.19;65.99;101133.78;4177909;28;20425;-65
2023/02/18 05:07:51;;;;;;;;;;;;;;;6.19;66.12;101128.44;4178609;28;21604;-66
2023/02/18 05:09:54;;;;;;;;;;;;;;;6.18;66.26;101138.31;4178220;28;19928;-65
2023/02/18 05:11:56;;;;;;;;;;;;;;;6.18;66.22;101124.06;4178833;28;20031;-66
2023/02/18 05:13:58;;;;;;;;;;;;;;;6.17;66.49;101130.41;4178794;28;20377;-66
2023/02/18 05:16:00;;;;;;;;;;;;;;;6.19;66.48;101129.28;4178350;28;20359;-66
2023/02/18 05:18:02;;;;;;;;;;;;;;;6.19;66.09;101123.94;4179279;28;20031;-66
2023/02/18 05:20:06;;;;;;;;;;;;;;;6.23;66.31;101119.13;4177167;28;20016;-65
2023/02/18 05:22:08;;;;;;;;;;;;;;;6.22;66.28;101120.97;4177786;28;20028;-66
2023/02/18 05:24:10;;;;;;;;;;;;;;;6.19;66.31;101129.28;4178298;28;20020;-65
2023/02/18 05:26:12;;;;;;;;;;;;;;;6.22;66.44;101128.16;4176897;28;20331;-66
2023/02/18 05:28:14;;;;;;;;;;;;;;;6.22;66.24;101118.28;4178433;28;20023;-65
2023/02/18 05:30:17;;;;;;;;;;;;;;;6.24;66.43;101113.63;4176955;28;20052;-65
2023/02/18 05:32:19;;;;;;;;;;;;;;;6.24;66.47;101121.66;4178630;28;20028;-66
2023/02/18 05:34:20;;;;;;;;;;;;;;;6.27;66.46;101109.78;4177545;28;20015;-65
2023/02/18 05:36:24;;;;;;;;;;;;;;;6.28;66.46;101106.97;4178242;28;20490;-66
2023/02/18 05:38:26;;;;;;;;;;;;;;;6.29;66.27;101110.53;4177606;28;20012;-65
2023/02/18 05:40:29;;;;;;;;;;;;;;;6.30;66.15;101104.16;4177191;28;20015;-65
2023/02/18 05:42:32;;;;;;;;;;;;;;;6.30;65.90;101106.81;4177793;28;20053;-66
2023/02/18 05:44:33;;;;;;;;;;;;;;;6.30;66.09;101107.69;4177498;28;20019;-65
2023/02/18 05:46:35;;;;;;;;;;;;;;;6.31;66.42;101106.69;4184842;28;20024;-65
2023/02/18 05:48:37;;;;;;;;;;;;;;;6.36;66.42;101108.94;4178522;28;20023;-65
2023/02/18 05:50:39;;;;;;;;;;;;;;;6.37;66.08;101107.97;4176512;28;20019;-65
2023/02/18 05:52:42;;;;;;;;;;;;;;;6.41;65.61;101105.84;4178432;28;20031;-65
2023/02/18 05:54:44;;;;;;;;;;;;;;;6.39;65.84;101099.78;4176722;28;20011;-65
2023/02/18 05:56:46;;;;;;;;;;;;;;;6.40;65.81;101098.81;4177675;28;20007;-65
2023/02/18 05:58:48;;;;;;;;;;;;;;;6.40;65.30;101093.44;4177053;28;20020;-65
2023/02/18 06:00:50;;;;;;;;;;;;;;;6.41;65.29;101103.16;4178064;28;20023;-66
2023/02/18 06:02:53;;;;;;;;;;;;;;;6.39;65.42;101107.84;4175930;28;20052;-65
2023/02/18 06:04:55;;;;;;;;;;;;;;;6.38;65.50;101101.63;4177449;28;20078;-65
2023/02/18 06:06:57;;;;;;;;;;;;;;;6.38;65.59;101109.69;4177695;28;20032;-65
2023/02/18 06:09:00;;;;;;;;;;;;;;;6.39;65.87;101095.25;4177888;28;20007;-65
2023/02/18 06:11:02;;;;;;;;;;;;;;;6.41;66.02;101106.72;4176472;28;20015;-65
2023/02/18 06:13:04;;;;;;;;;;;;;;;6.44;65.59;101105.56;4176834;28;20016;-66
2023/02/18 06:15:06;;;;;;;;;;;;;;;6.46;65.64;101108.97;4170233;28;20422;-66
2023/02/18 06:17:08;;;;;;;;;;;;;;;6.46;65.60;101098.25;4173715;28;20019;-65
2023/02/18 06:19:10;;;;;;;;;;;;;;;6.46;65.43;101103.63;4174843;28;20506;-65
2023/02/18 06:21:12;;;;;;;;;;;;;;;6.44;65.73;101105.56;4173321;28;20015;-66
2023/02/18 06:23:14;;;;;;;;;;;;;;;6.46;65.65;101101.78;4177454;28;20032;-66
2023/02/18 06:25:18;;;;;;;;;;;;;;;6.47;65.80;101095.44;4177232;28;20023;-66
2023/02/18 06:27:20;;;;;;;;;;;;;;;6.49;65.55;101109.53;4174919;28;20023;-66
2023/02/18 06:29:22;;;;;;;;;;;;;;;6.47;65.60;101097.25;4184744;28;19967;-66
2023/02/18 06:31:24;;;;;;;;;;;;;;;6.49;65.78;101101.50;4176000;28;20011;-66
2023/02/18 06:33:26;;;;;;;;;;;;;;;6.48;65.71;101093.56;4176436;28;20019;-66
2023/02/18 06:35:28;;;;;;;;;;;;;;;6.48;65.93;101091.72;4175797;28;20022;-66
2023/02/18 06:37:30;;;;;;;;;;;;;;;6.50;65.81;101094.28;4174499;28;20015;-65
2023/02/18 06:39:32;;;;;;;;;;;;;;;6.50;65.80;101099.63;4177313;28;20199;-66
2023/02/18 06:41:36;;;;;;;;;;;;;;;6.51;65.90;101103.19;4175251;28;20427;-66
2023/02/18 06:43:38;;;;;;;;;;;;;;;6.51;65.75;101095.97;4167498;28;20054;-65
2023/02/18 06:45:40;;;;;;;;;;;;;;;6.51;66.15;101095.97;4173597;28;20810;-66
2023/02/18 06:47:42;;;;;;;;;;;;;;;6.51;66.24;101092.47;4174540;28;20679;-65
2023/02/18 06:49:44;;;;;;;;;;;;;;;6.50;66.04;101094.28;4167738;28;20036;-65
2023/02/18 06:51:46;;;;;;;;;;;;;;;6.53;66.25;101087.78;4174828;28;20530;-66
2023/02/18 06:53:47;;;;;;;;;;;;;;;6.51;66.26;101090.59;4176246;28;20019;-66
2023/02/18 06:55:49;;;;;;;;;;;;;;;6.51;66.48;101095.97;4172548;28;20390;-66
2023/02/18 06:57:53;;;;;;;;;;;;;;;6.54;66.51;101082.28;4176578;28;20011;-65
2023/02/18 06:59:55;;;;;;;;;;;;;;;6.52;65.97;101076.22;4174264;28;20389;-66
2023/02/18 07:01:57;;;;;;;;;;;;;;;6.51;66.16;101077.19;4176461;28;20028;-66
2023/02/18 07:03:58;;;;;;;;;;;;;;;6.53;66.38;101079.75;4172235;28;20029;-65
2023/02/18 07:06:01;;;;;;;;;;;;;;;6.54;66.25;101081.44;4174165;28;20008;-66
2023/02/18 07:08:03;;;;;;;;;;;;;;;6.54;66.17;101084.13;4172818;28;20035;-66
2023/02/18 07:10:05;;;;;;;;;;;;;;;6.55;65.86;101075.06;4171090;28;20012;-66
2023/02/18 07:12:07;;;;;;;;;;;;;;;6.56;66.12;101074.91;4177663;28;20028;-65
2023/02/18 07:14:11;;;;;;;;;;;;;;;6.58;65.75;101081.00;4178108;28;20015;-65
2023/02/18 07:16:13;;;;;;;;;;;;;;;6.64;65.69;101075.03;4176277;28;20007;-65
2023/02/18 07:18:15;;;;;;;;;;;;;;;6.65;65.67;101071.38;4179878;28;20095;-65
2023/02/18 07:20:17;;;;;;;;;;;;;;;6.67;65.96;101061.34;4177938;28;20007;-65
2023/02/18 07:22:19;;;;;;;;;;;;;;;6.70;65.67;101075.47;4175453;28;20323;-65
2023/02/18 07:24:21;;;;;;;;;;;;;;;6.71;65.50;101078.03;4178019;28;20059;-65
2023/02/18 07:26:23;;;;;;;;;;;;;;;6.76;65.59;101066.84;4176473;28;20012;-66
2023/02/18 07:28:24;;;;;;;;;;;;;;;6.76;65.97;101070.38;4176739;28;20032;-66
2023/02/18 07:30:28;;;;;;;;;;;;;;;6.73;65.91;101070.66;4177347;28;20052;-66
2023/02/18 07:32:31;;;;;;;;;;;;;;;6.78;66.29;101059.50;4176875;28;20031;-66
2023/02/18 07:34:33;;;;;;;;;;;;;;;6.77;66.90;101057.78;4178207;28;20055;-66
2023/02/18 07:36:35;;;;;;;;;;;;;;;6.76;66.97;101058.81;4178150;28;20375;-66
2023/02/18 07:38:37;;;;;;;;;;;;;;;6.76;67.46;101069.53;4177246;28;20024;-66
2023/02/18 07:40:39;;;;;;;;;;;;;;;6.75;67.69;101067.84;4175869;28;20020;-65
2023/02/18 07:42:41;;;;;;;;;;;;;;;6.76;67.79;101056.97;4177414;28;20028;-66
2023/02/18 07:44:43;;;;;;;;;;;;;;;6.76;68.18;101051.59;4178137;28;20119;-65
2023/02/18 07:46:46;;;;;;;;;;;;;;;6.78;67.90;101065.69;4178132;28;20041;-66
2023/02/18 07:48:48;;;;;;;;;;;;;;;6.77;68.47;101052.44;4178595;28;20019;-66
2023/02/18 07:50:50;;;;;;;;;;;;;;;6.75;68.94;101049.06;4178818;28;20011;-65
2023/02/18 07:52:52;;;;;;;;;;;;;;;6.74;69.16;101047.34;4177226;28;20024;-65
2023/02/18 07:54:54;;;;;;;;;;;;;;;6.73;69.48;101037.63;4174561;28;20049;-65
2023/02/18 07:56:56;;;;;;;;;;;;;;;6.70;70.06;101041.44;4179384;28;20011;-65
2023/02/18 07:58:58;;;;;;;;;;;;;;;6.65;70.57;101039.16;4177741;28;20020;-66
2023/02/18 08:01:00;;;;;;;;;;;;;;;6.64;70.92;101042.00;4176202;28;20016;-66
2023/02/18 08:03:04;;;;;;;;;;;;;;;6.63;71.43;101046.53;4175978;28;20083;-65
2023/02/18 08:05:06;;;;;;;;;;;;;;;6.60;72.06;101045.94;4175716;28;20000;-66
2023/02/18 08:07:12;;;;;;;;;;;;;;;6.61;72.12;101050.34;4177622;28;20011;-67
2023/02/18 08:09:17;;;;;;;;;;;;;;;6.62;72.37;101049.34;4176130;28;20020;-66
2023/02/18 08:11:19;;;;;;;;;;;;;;;6.63;72.31;101049.22;4173825;28;20031;-65
2023/02/18 08:13:21;;;;;;;;;;;;;;;6.63;72.42;101029.56;4175903;28;20055;-66
2023/02/18 08:15:24;;;;;;;;;;;;;;;6.60;72.65;101021.78;4178329;28;20033;-65
2023/02/18 08:17:26;;;;;;;;;;;;;;;6.60;72.77;101032.53;4175983;28;20028;-65
2023/02/18 08:19:31;;;;;;;;;;;;;;;6.58;72.68;101021.97;4176424;28;20373;-66
2023/02/18 08:21:34;;;;;;;;;;;;;;;6.55;73.02;101016.88;4178112;28;20648;-66
2023/02/18 08:23:35;;;;;;;;;;;;;;;6.61;72.96;101023.50;4175116;28;20023;-65
2023/02/18 08:25:37;;;;;;;;;;;;;;;6.58;73.18;101015.75;4176948;28;20019;-65
2023/02/18 08:27:39;;;;;;;;;;;;;;;6.56;73.27;101007.00;4176962;28;20023;-66
2023/02/18 08:29:41;;;;;;;;;;;;;;;6.54;73.23;101004.44;4176288;28;20016;-66
2023/02/18 08:31:43;;;;;;;;;;;;;;;6.53;73.73;101001.91;4178100;28;20056;-66
2023/02/18 08:33:45;;;;;;;;;;;;;;;6.57;74.08;101014.06;4177760;28;20016;-67
2023/02/18 08:35:49;;;;;;;;;;;;;;;6.53;74.27;101002.75;4178266;28;20051;-66
2023/02/18 08:37:51;;;;;;;;;;;;;;;6.51;74.84;101001.22;4178944;28;20019;-66
2023/02/18 08:39:53;;;;;;;;;;;;;;;6.48;75.10;101003.19;4178968;28;20017;-67
2023/02/18 08:41:56;;;;;;;;;;;;;;;6.49;75.35;100996.00;4177298;28;20028;-66
2023/02/18 08:43:58;;;;;;;;;;;;;;;6.47;75.83;100990.78;4179341;28;20023;-66
2023/02/18 08:46:00;;;;;;;;;;;;;;;6.48;75.87;100991.63;4179152;28;20347;-66
2023/02/18 08:48:02;;;;;;;;;;;;;;;6.45;76.17;100984.69;4176709;28;20036;-66
2023/02/18 08:50:07;;;;;;;;;;;;;;;6.47;76.26;100971.13;4176440;28;20028;-66
2023/02/18 08:52:10;;;;;;;;;;;;;;;6.47;76.58;100980.03;4177936;28;20147;-66
2023/02/18 08:54:12;;;;;;;;;;;;;;;6.47;76.96;100976.50;4176833;28;20019;-66
2023/02/18 08:56:14;;;;;;;;;;;;;;;6.46;77.19;100964.09;4177509;28;20015;-66
2023/02/18 08:58:17;;;;;;;;;;;;;;;6.47;77.53;100972.00;4177469;28;20040;-66
2023/02/18 09:00:20;;;;;;;;;;;;;;;6.47;77.34;100966.63;4177716;28;20064;-66
2023/02/18 09:02:22;;;;;;;;;;;;;;;6.45;77.57;100968.59;4178296;28;20055;-66
2023/02/18 09:04:24;;;;;;;;;;;;;;;6.47;77.94;100973.81;4177477;28;20395;-67
2023/02/18 09:06:26;;;;;;;;;;;;;;;6.47;77.93;100963.94;4178455;28;20016;-66
2023/02/18 09:08:29;;;;;;;;;;;;;;;6.45;78.60;100960.53;4178903;28;20019;-67
2023/02/18 09:10:31;;;;;;;;;;;;;;;6.47;78.84;100966.63;4177928;28;20032;-67
2023/02/18 09:12:34;;;;;;;;;;;;;;;6.47;78.98;100963.06;4177050;28;20016;-66
2023/02/18 09:14:36;;;;;;;;;;;;;;;6.46;78.94;100948.00;4176629;28;20435;-67
2023/02/18 09:16:38;;;;;;;;;;;;;;;6.45;79.29;100939.06;4179000;28;20027;-66
2023/02/18 09:18:41;;;;;;;;;;;;;;;6.44;79.69;100942.75;4179226;28;20035;-66
2023/02/18 09:20:42;;;;;;;;;;;;;;;6.45;80.19;100930.19;4177917;28;20369;-66
2023/02/18 09:22:44;;;;;;;;;;;;;;;6.44;80.56;100925.81;4179028;28;19964;-66
2023/02/18 09:24:48;;;;;;;;;;;;;;;6.45;80.96;100930.19;4177259;28;20020;-66
2023/02/18 09:26:50;;;;;;;;;;;;;;;6.45;81.26;100920.28;4178301;28;20032;-65
2023/02/18 09:28:52;;;;;;;;;;;;;;;6.46;80.91;100924.69;4176494;28;20019;-65
2023/02/18 09:30:54;;;;;;;;;;;;;;;6.47;80.94;100928.19;4176836;28;20016;-66
2023/02/18 09:32:57;;;;;;;;;;;;;;;6.44;81.17;100923.13;4176599;28;20016;-66
2023/02/18 09:34:59;;;;;;;;;;;;;;;6.39;81.94;100920.88;4167892;28;19952;-66
2023/02/18 09:37:01;;;;;;;;;;;;;;;6.39;82.29;100912.81;4176446;28;20016;-66
2023/02/18 09:39:03;;;;;;;;;;;;;;;6.41;82.29;100899.25;4177287;28;20047;-66
2023/02/18 09:41:07;;;;;;;;;;;;;;;6.43;82.66;100899.97;4177386;28;20028;-65
2023/02/18 09:43:09;;;;;;;;;;;;;;;6.45;82.78;100898.00;4176144;28;20446;-66
2023/02/18 09:45:11;;;;;;;;;;;;;;;6.45;82.47;100911.41;4175208;28;20023;-66
2023/02/18 09:47:14;;;;;;;;;;;;;;;6.45;82.61;100898.00;4177006;28;20373;-66
2023/02/18 09:49:17;;;;;;;;;;;;;;;6.41;82.36;100881.34;4175092;28;20008;-65
2023/02/18 09:51:19;;;;;;;;;;;;;;;6.40;82.79;100879.66;4176806;28;20462;-66
2023/02/18 09:53:21;;;;;;;;;;;;;;;6.38;82.82;100865.53;4175837;28;20009;-66
2023/02/18 09:55:24;;;;;;;;;;;;;;;6.40;83.32;100873.44;4175417;28;20102;-65
2023/02/18 09:57:28;;;;;;;;;;;;;;;6.40;83.65;100863.53;4175563;28;20466;-65
2023/02/18 09:59:30;;;;;;;;;;;;;;;6.41;84.38;100846.47;4174281;28;20024;-66
2023/02/18 10:01:34;;;;;;;;;;;;;;;6.44;84.72;100840.81;4177593;28;20032;-66
2023/02/18 10:03:36;;;;;;;;;;;;;;;6.48;84.24;100833.31;4176717;28;20023;-66
2023/02/18 10:05:38;;;;;;;;;;;;;;;6.49;84.78;100835.84;4168241;28;20060;-66
2023/02/18 10:07:40;;;;;;;;;;;;;;;6.52;84.79;100825.78;4155782;28;20016;-66
2023/02/18 10:09:42;;;;;;;;;;;;;;;6.52;84.79;100833.84;4159017;28;20008;-65
2023/02/18 10:11:44;;;;;;;;;;;;;;;6.51;84.92;100833.00;4176508;28;20020;-66
2023/02/18 10:13:48;;;;;;;;;;;;;;;6.48;85.74;100826.09;4177106;28;20024;-66
2023/02/18 10:15:50;;;;;;;;;;;;;;;6.47;86.12;100824.41;4175087;28;20035;-65
2023/02/18 10:17:52;;;;;;;;;;;;;;;6.47;85.96;100827.09;4177029;28;20023;-65
2023/02/18 10:19:56;;;;;;;;;;;;;;;6.44;86.45;100830.06;4176878;28;20020;-66
2023/02/18 10:22:00;;;;;;;;;;;;;;;6.42;87.22;100829.34;4176339;28;20023;-66
2023/02/18 10:24:04;;;;;;;;;;;;;;;6.44;87.38;100816.66;4174478;28;20379;-66
2023/02/18 10:26:07;;;;;;;;;;;;;;;6.42;87.97;100810.56;4175770;28;20510;-66
2023/02/18 10:28:10;;;;;;;;;;;;;;;6.41;88.13;100805.34;4177330;28;20012;-65
2023/02/18 10:30:22;;;;;;;;;;;;;;;6.40;88.62;100795.66;4176492;28;20027;-66
2023/02/18 10:32:25;;;;;;;;;;;;;;;6.41;89.01;100779.41;4176135;28;20011;-65
2023/02/18 10:34:31;;;;;;;;;;;;;;;6.44;89.09;100779.09;4175325;28;20717;-66
2023/02/18 10:36:35;;;;;;;;;;;;;;;6.46;88.65;100773.59;4176686;28;20454;-66
2023/02/18 10:38:40;;;;;;;;;;;;;;;6.45;89.06;100761.16;4175876;28;20019;-65
2023/02/18 10:40:45;;;;;;;;;;;;;;;6.46;89.24;100755.63;4175903;28;20035;-66